sensor_id;sensor_type;location;lat;lon;timestamp;P1;durP1;ratioP1;P2;durP2;ratioP2
43620;SDS011;29213;50.770;7.298;2023-05-10T00:00:10;2.60;;;1.30;;
43620;SDS011;29213;50.770;7.298;2023-05-10T00:02:35;2.40;;;1.27;;
43620;SDS011;29213;50.770;7.298;2023-05-10T00:05:01;2.20;;;1.27;;
43620;SDS011;29213;50.770;7.298;2023-05-10T00:07:26;2.10;;;1.17;;
43620;SDS011;29213;50.770;7.298;2023-05-10T00:09:52;4.32;;;1.50;;
43620;SDS011;29213;50.770;7.298;2023-05-10T00:12:17;4.05;;;1.50;;
43620;SDS011;29213;50.770;7.298;2023-05-10T00:14:43;2.50;;;1.40;;
43620;SDS011;29213;50.770;7.298;2023-05-10T00:17:08;2.90;;;1.40;;
43620;SDS011;29213;50.770;7.298;2023-05-10T00:19:33;2.53;;;1.30;;
43620;SDS011;29213;50.770;7.298;2023-05-10T00:21:59;2.10;;;1.20;;
43620;SDS011;29213;50.770;7.298;2023-05-10T00:24:24;2.78;;;1.30;;
43620;SDS011;29213;50.770;7.298;2023-05-10T00:26:50;2.50;;;1.30;;
43620;SDS011;29213;50.770;7.298;2023-05-10T00:29:15;2.30;;;1.20;;
43620;SDS011;29213;50.770;7.298;2023-05-10T00:31:40;3.75;;;1.40;;
43620;SDS011;29213;50.770;7.298;2023-05-10T00:34:06;3.55;;;1.30;;
43620;SDS011;29213;50.770;7.298;2023-05-10T00:36:31;2.72;;;1.50;;
43620;SDS011;29213;50.770;7.298;2023-05-10T00:38:57;3.58;;;1.60;;
43620;SDS011;29213;50.770;7.298;2023-05-10T00:41:22;3.58;;;1.50;;
43620;SDS011;29213;50.770;7.298;2023-05-10T00:43:47;3.67;;;1.80;;
43620;SDS011;29213;50.770;7.298;2023-05-10T00:46:14;2.65;;;1.50;;
43620;SDS011;29213;50.770;7.298;2023-05-10T00:48:39;2.83;;;1.60;;
43620;SDS011;29213;50.770;7.298;2023-05-10T00:51:05;3.20;;;1.83;;
43620;SDS011;29213;50.770;7.298;2023-05-10T00:53:31;2.92;;;1.85;;
43620;SDS011;29213;50.770;7.298;2023-05-10T00:55:58;3.10;;;1.70;;
43620;SDS011;29213;50.770;7.298;2023-05-10T00:58:24;3.63;;;1.90;;
43620;SDS011;29213;50.770;7.298;2023-05-10T01:00:53;3.40;;;2.13;;
43620;SDS011;29213;50.770;7.298;2023-05-10T01:03:19;4.38;;;1.90;;
43620;SDS011;29213;50.770;7.298;2023-05-10T01:05:45;3.58;;;1.98;;
43620;SDS011;29213;50.770;7.298;2023-05-10T01:08:11;3.03;;;1.98;;
43620;SDS011;29213;50.770;7.298;2023-05-10T01:10:37;4.07;;;1.90;;
43620;SDS011;29213;50.770;7.298;2023-05-10T01:13:02;3.05;;;1.90;;
43620;SDS011;29213;50.770;7.298;2023-05-10T01:15:28;3.38;;;1.77;;
43620;SDS011;29213;50.770;7.298;2023-05-10T01:17:54;2.90;;;1.90;;
43620;SDS011;29213;50.770;7.298;2023-05-10T01:20:20;2.95;;;2.00;;
43620;SDS011;29213;50.770;7.298;2023-05-10T01:23:04;2.75;;;1.95;;
43620;SDS011;29213;50.770;7.298;2023-05-10T01:31:22;3.10;;;2.00;;
43620;SDS011;29213;50.770;7.298;2023-05-10T01:36:31;3.28;;;1.83;;
43620;SDS011;29213;50.770;7.298;2023-05-10T01:44:56;3.00;;;1.90;;
43620;SDS011;29213;50.770;7.298;2023-05-10T01:47:44;2.95;;;2.00;;
43620;SDS011;29213;50.770;7.298;2023-05-10T01:50:16;3.80;;;1.95;;
43620;SDS011;29213;50.770;7.298;2023-05-10T01:52:46;2.95;;;1.90;;
43620;SDS011;29213;50.770;7.298;2023-05-10T01:55:15;3.10;;;1.90;;
43620;SDS011;29213;50.770;7.298;2023-05-10T01:57:43;3.13;;;1.73;;
43620;SDS011;29213;50.770;7.298;2023-05-10T02:00:11;3.53;;;1.60;;
43620;SDS011;29213;50.770;7.298;2023-05-10T02:02:42;2.10;;;1.20;;
43620;SDS011;29213;50.770;7.298;2023-05-10T02:05:12;2.80;;;1.27;;
43620;SDS011;29213;50.770;7.298;2023-05-10T02:07:39;3.05;;;1.15;;
43620;SDS011;29213;50.770;7.298;2023-05-10T02:10:07;2.13;;;1.10;;
43620;SDS011;29213;50.770;7.298;2023-05-10T02:12:43;2.90;;;1.05;;
43620;SDS011;29213;50.770;7.298;2023-05-10T02:15:12;2.33;;;1.02;;
43620;SDS011;29213;50.770;7.298;2023-05-10T02:17:43;2.33;;;1.00;;
43620;SDS011;29213;50.770;7.298;2023-05-10T02:20:09;1.90;;;0.90;;
43620;SDS011;29213;50.770;7.298;2023-05-10T02:22:36;1.75;;;0.80;;
43620;SDS011;29213;50.770;7.298;2023-05-10T02:25:03;1.95;;;0.90;;
43620;SDS011;29213;50.770;7.298;2023-05-10T02:27:29;3.97;;;1.05;;
43620;SDS011;29213;50.770;7.298;2023-05-10T02:29:56;3.45;;;1.00;;
43620;SDS011;29213;50.770;7.298;2023-05-10T02:32:22;2.30;;;1.10;;
43620;SDS011;29213;50.770;7.298;2023-05-10T02:34:51;2.53;;;1.00;;
43620;SDS011;29213;50.770;7.298;2023-05-10T02:37:18;2.10;;;1.00;;
43620;SDS011;29213;50.770;7.298;2023-05-10T02:39:46;2.42;;;1.15;;
43620;SDS011;29213;50.770;7.298;2023-05-10T02:42:20;2.63;;;0.90;;
43620;SDS011;29213;50.770;7.298;2023-05-10T02:44:50;2.40;;;1.20;;
43620;SDS011;29213;50.770;7.298;2023-05-10T02:47:20;3.17;;;1.20;;
43620;SDS011;29213;50.770;7.298;2023-05-10T02:49:46;2.58;;;1.23;;
43620;SDS011;29213;50.770;7.298;2023-05-10T02:52:14;2.78;;;1.10;;
43620;SDS011;29213;50.770;7.298;2023-05-10T02:54:45;2.22;;;1.10;;
43620;SDS011;29213;50.770;7.298;2023-05-10T02:57:15;2.42;;;1.20;;
43620;SDS011;29213;50.770;7.298;2023-05-10T02:59:44;2.75;;;1.20;;
43620;SDS011;29213;50.770;7.298;2023-05-10T03:02:10;3.25;;;1.38;;
43620;SDS011;29213;50.770;7.298;2023-05-10T03:04:37;2.25;;;1.20;;
43620;SDS011;29213;50.770;7.298;2023-05-10T03:07:03;2.20;;;1.02;;
43620;SDS011;29213;50.770;7.298;2023-05-10T03:09:29;4.05;;;1.20;;
43620;SDS011;29213;50.770;7.298;2023-05-10T03:11:56;3.45;;;1.13;;
43620;SDS011;29213;50.770;7.298;2023-05-10T03:17:25;3.72;;;1.20;;
43620;SDS011;29213;50.770;7.298;2023-05-10T03:19:56;2.47;;;1.10;;
43620;SDS011;29213;50.770;7.298;2023-05-10T03:22:31;2.83;;;1.42;;
43620;SDS011;29213;50.770;7.298;2023-05-10T03:25:02;3.17;;;1.45;;
43620;SDS011;29213;50.770;7.298;2023-05-10T03:29:57;2.83;;;1.60;;
43620;SDS011;29213;50.770;7.298;2023-05-10T03:32:23;3.35;;;1.52;;
43620;SDS011;29213;50.770;7.298;2023-05-10T03:34:48;2.60;;;1.63;;
43620;SDS011;29213;50.770;7.298;2023-05-10T03:37:14;4.15;;;2.30;;
43620;SDS011;29213;50.770;7.298;2023-05-10T03:39:39;3.58;;;2.00;;
43620;SDS011;29213;50.770;7.298;2023-05-10T03:42:04;3.80;;;2.20;;
43620;SDS011;29213;50.770;7.298;2023-05-10T03:44:30;3.72;;;2.20;;
43620;SDS011;29213;50.770;7.298;2023-05-10T03:46:58;3.53;;;2.40;;
43620;SDS011;29213;50.770;7.298;2023-05-10T03:49:23;4.95;;;2.60;;
43620;SDS011;29213;50.770;7.298;2023-05-10T03:51:48;3.75;;;2.30;;
43620;SDS011;29213;50.770;7.298;2023-05-10T03:54:14;3.33;;;2.28;;
43620;SDS011;29213;50.770;7.298;2023-05-10T03:56:39;4.07;;;2.22;;
43620;SDS011;29213;50.770;7.298;2023-05-10T03:59:05;4.07;;;2.55;;
43620;SDS011;29213;50.770;7.298;2023-05-10T04:01:33;3.70;;;2.47;;
43620;SDS011;29213;50.770;7.298;2023-05-10T04:03:59;4.03;;;2.60;;
43620;SDS011;29213;50.770;7.298;2023-05-10T04:06:24;3.70;;;2.53;;
43620;SDS011;29213;50.770;7.298;2023-05-10T04:08:49;4.57;;;3.10;;
43620;SDS011;29213;50.770;7.298;2023-05-10T04:11:15;5.68;;;3.88;;
43620;SDS011;29213;50.770;7.298;2023-05-10T04:13:40;5.50;;;3.30;;
43620;SDS011;29213;50.770;7.298;2023-05-10T04:16:06;4.43;;;2.90;;
43620;SDS011;29213;50.770;7.298;2023-05-10T04:18:31;4.80;;;2.55;;
43620;SDS011;29213;50.770;7.298;2023-05-10T04:20:57;4.28;;;2.50;;
43620;SDS011;29213;50.770;7.298;2023-05-10T04:23:22;3.65;;;2.65;;
43620;SDS011;29213;50.770;7.298;2023-05-10T04:25:48;3.75;;;2.40;;
43620;SDS011;29213;50.770;7.298;2023-05-10T04:28:13;4.72;;;2.30;;
43620;SDS011;29213;50.770;7.298;2023-05-10T04:30:39;4.90;;;3.22;;
43620;SDS011;29213;50.770;7.298;2023-05-10T04:33:05;6.35;;;3.60;;
43620;SDS011;29213;50.770;7.298;2023-05-10T04:35:31;5.32;;;3.92;;
43620;SDS011;29213;50.770;7.298;2023-05-10T04:37:56;5.15;;;3.80;;
43620;SDS011;29213;50.770;7.298;2023-05-10T04:40:21;6.78;;;4.38;;
43620;SDS011;29213;50.770;7.298;2023-05-10T04:42:47;5.88;;;3.80;;
43620;SDS011;29213;50.770;7.298;2023-05-10T04:45:12;7.10;;;4.80;;
43620;SDS011;29213;50.770;7.298;2023-05-10T04:47:39;6.30;;;4.25;;
43620;SDS011;29213;50.770;7.298;2023-05-10T04:50:05;6.65;;;4.70;;
43620;SDS011;29213;50.770;7.298;2023-05-10T04:52:31;6.60;;;4.55;;
43620;SDS011;29213;50.770;7.298;2023-05-10T04:54:57;7.25;;;4.18;;
43620;SDS011;29213;50.770;7.298;2023-05-10T04:57:22;7.40;;;4.72;;
43620;SDS011;29213;50.770;7.298;2023-05-10T04:59:47;7.47;;;5.03;;
43620;SDS011;29213;50.770;7.298;2023-05-10T05:02:13;7.10;;;5.20;;
43620;SDS011;29213;50.770;7.298;2023-05-10T05:04:38;7.05;;;5.03;;
43620;SDS011;29213;50.770;7.298;2023-05-10T05:07:04;9.93;;;5.43;;
43620;SDS011;29213;50.770;7.298;2023-05-10T05:09:29;9.30;;;5.28;;
43620;SDS011;29213;50.770;7.298;2023-05-10T05:11:57;6.50;;;4.60;;
43620;SDS011;29213;50.770;7.298;2023-05-10T05:14:23;8.15;;;5.50;;
43620;SDS011;29213;50.770;7.298;2023-05-10T05:16:50;7.13;;;5.53;;
43620;SDS011;29213;50.770;7.298;2023-05-10T05:19:17;7.93;;;5.10;;
43620;SDS011;29213;50.770;7.298;2023-05-10T05:21:42;8.43;;;5.38;;
43620;SDS011;29213;50.770;7.298;2023-05-10T05:24:08;6.75;;;5.15;;
43620;SDS011;29213;50.770;7.298;2023-05-10T05:26:33;7.38;;;5.22;;
43620;SDS011;29213;50.770;7.298;2023-05-10T05:28:59;7.03;;;5.25;;
43620;SDS011;29213;50.770;7.298;2023-05-10T05:31:24;6.70;;;4.82;;
43620;SDS011;29213;50.770;7.298;2023-05-10T05:33:50;4.60;;;3.08;;
43620;SDS011;29213;50.770;7.298;2023-05-10T05:36:15;5.30;;;4.07;;
43620;SDS011;29213;50.770;7.298;2023-05-10T05:38:40;8.73;;;6.63;;
43620;SDS011;29213;50.770;7.298;2023-05-10T05:41:06;8.77;;;6.50;;
43620;SDS011;29213;50.770;7.298;2023-05-10T05:43:31;8.27;;;6.45;;
43620;SDS011;29213;50.770;7.298;2023-05-10T05:45:56;7.85;;;6.30;;
43620;SDS011;29213;50.770;7.298;2023-05-10T05:48:23;8.90;;;6.80;;
43620;SDS011;29213;50.770;7.298;2023-05-10T05:50:49;9.00;;;6.68;;
43620;SDS011;29213;50.770;7.298;2023-05-10T05:53:14;9.18;;;6.65;;
43620;SDS011;29213;50.770;7.298;2023-05-10T05:55:39;8.80;;;6.72;;
43620;SDS011;29213;50.770;7.298;2023-05-10T05:58:05;8.65;;;6.90;;
43620;SDS011;29213;50.770;7.298;2023-05-10T06:00:30;8.43;;;6.57;;
43620;SDS011;29213;50.770;7.298;2023-05-10T06:02:56;8.88;;;6.80;;
43620;SDS011;29213;50.770;7.298;2023-05-10T06:05:22;7.70;;;6.20;;
43620;SDS011;29213;50.770;7.298;2023-05-10T06:07:47;9.93;;;4.60;;
43620;SDS011;29213;50.770;7.298;2023-05-10T06:10:12;6.43;;;3.78;;
43620;SDS011;29213;50.770;7.298;2023-05-10T06:12:38;8.18;;;4.43;;
43620;SDS011;29213;50.770;7.298;2023-05-10T06:15:03;9.25;;;5.70;;
43620;SDS011;29213;50.770;7.298;2023-05-10T06:17:30;11.20;;;5.85;;
43620;SDS011;29213;50.770;7.298;2023-05-10T06:19:55;10.00;;;4.90;;
43620;SDS011;29213;50.770;7.298;2023-05-10T06:22:21;8.35;;;6.47;;
43620;SDS011;29213;50.770;7.298;2023-05-10T06:24:49;10.07;;;6.80;;
43620;SDS011;29213;50.770;7.298;2023-05-10T06:27:14;7.30;;;6.00;;
43620;SDS011;29213;50.770;7.298;2023-05-10T06:29:40;8.98;;;7.13;;
43620;SDS011;29213;50.770;7.298;2023-05-10T06:32:05;10.00;;;7.53;;
43620;SDS011;29213;50.770;7.298;2023-05-10T06:34:31;9.63;;;6.93;;
43620;SDS011;29213;50.770;7.298;2023-05-10T06:36:56;9.70;;;7.35;;
43620;SDS011;29213;50.770;7.298;2023-05-10T06:39:22;10.02;;;7.90;;
43620;SDS011;29213;50.770;7.298;2023-05-10T06:41:47;10.57;;;7.38;;
43620;SDS011;29213;50.770;7.298;2023-05-10T06:44:13;10.82;;;8.18;;
43620;SDS011;29213;50.770;7.298;2023-05-10T06:46:38;8.82;;;7.45;;
43620;SDS011;29213;50.770;7.298;2023-05-10T06:49:03;9.82;;;7.85;;
43620;SDS011;29213;50.770;7.298;2023-05-10T06:51:29;10.95;;;7.38;;
43620;SDS011;29213;50.770;7.298;2023-05-10T06:53:55;10.30;;;7.40;;
43620;SDS011;29213;50.770;7.298;2023-05-10T06:56:20;9.55;;;7.65;;
43620;SDS011;29213;50.770;7.298;2023-05-10T06:58:47;9.88;;;7.05;;
43620;SDS011;29213;50.770;7.298;2023-05-10T07:01:13;8.70;;;6.60;;
43620;SDS011;29213;50.770;7.298;2023-05-10T07:03:39;8.20;;;6.45;;
43620;SDS011;29213;50.770;7.298;2023-05-10T07:06:17;8.18;;;6.43;;
43620;SDS011;29213;50.770;7.298;2023-05-10T07:08:42;7.50;;;6.00;;
43620;SDS011;29213;50.770;7.298;2023-05-10T07:11:08;8.40;;;6.15;;
43620;SDS011;29213;50.770;7.298;2023-05-10T07:13:33;7.07;;;5.55;;
43620;SDS011;29213;50.770;7.298;2023-05-10T07:15:59;7.15;;;5.88;;
43620;SDS011;29213;50.770;7.298;2023-05-10T07:18:27;8.85;;;5.47;;
43620;SDS011;29213;50.770;7.298;2023-05-10T07:20:52;8.25;;;5.43;;
43620;SDS011;29213;50.770;7.298;2023-05-10T07:23:18;7.32;;;5.35;;
43620;SDS011;29213;50.770;7.298;2023-05-10T07:25:47;7.07;;;4.78;;
43620;SDS011;29213;50.770;7.298;2023-05-10T07:30:40;6.90;;;4.22;;
43620;SDS011;29213;50.770;7.298;2023-05-10T07:33:05;5.45;;;3.88;;
43620;SDS011;29213;50.770;7.298;2023-05-10T07:35:30;5.93;;;4.25;;
43620;SDS011;29213;50.770;7.298;2023-05-10T07:37:56;6.35;;;3.83;;
43620;SDS011;29213;50.770;7.298;2023-05-10T07:40:21;5.93;;;4.00;;
43620;SDS011;29213;50.770;7.298;2023-05-10T07:42:47;5.10;;;3.58;;
43620;SDS011;29213;50.770;7.298;2023-05-10T07:45:12;5.75;;;3.78;;
43620;SDS011;29213;50.770;7.298;2023-05-10T07:47:37;5.07;;;3.33;;
43620;SDS011;29213;50.770;7.298;2023-05-10T07:50:03;6.65;;;3.22;;
43620;SDS011;29213;50.770;7.298;2023-05-10T07:52:29;5.93;;;3.20;;
43620;SDS011;29213;50.770;7.298;2023-05-10T07:54:54;5.80;;;3.50;;
43620;SDS011;29213;50.770;7.298;2023-05-10T07:57:21;4.78;;;3.03;;
43620;SDS011;29213;50.770;7.298;2023-05-10T07:59:47;4.63;;;2.67;;
43620;SDS011;29213;50.770;7.298;2023-05-10T08:02:12;5.00;;;2.88;;
43620;SDS011;29213;50.770;7.298;2023-05-10T08:04:38;4.40;;;2.85;;
43620;SDS011;29213;50.770;7.298;2023-05-10T08:07:03;5.70;;;3.00;;
43620;SDS011;29213;50.770;7.298;2023-05-10T08:09:28;5.82;;;3.05;;
43620;SDS011;29213;50.770;7.298;2023-05-10T08:11:54;5.53;;;2.78;;
43620;SDS011;29213;50.770;7.298;2023-05-10T08:14:20;4.82;;;2.70;;
43620;SDS011;29213;50.770;7.298;2023-05-10T08:16:45;4.75;;;2.70;;
43620;SDS011;29213;50.770;7.298;2023-05-10T08:19:11;4.65;;;2.72;;
43620;SDS011;29213;50.770;7.298;2023-05-10T08:21:36;4.63;;;2.85;;
43620;SDS011;29213;50.770;7.298;2023-05-10T08:24:02;4.65;;;2.58;;
43620;SDS011;29213;50.770;7.298;2023-05-10T08:26:27;4.80;;;2.47;;
43620;SDS011;29213;50.770;7.298;2023-05-10T08:28:53;5.10;;;2.50;;
43620;SDS011;29213;50.770;7.298;2023-05-10T08:31:18;4.18;;;2.17;;
43620;SDS011;29213;50.770;7.298;2023-05-10T08:33:44;3.67;;;2.38;;
43620;SDS011;29213;50.770;7.298;2023-05-10T08:36:09;3.38;;;1.95;;
43620;SDS011;29213;50.770;7.298;2023-05-10T08:38:35;4.93;;;2.17;;
43620;SDS011;29213;50.770;7.298;2023-05-10T08:41:00;3.90;;;2.05;;
43620;SDS011;29213;50.770;7.298;2023-05-10T08:43:27;4.35;;;2.03;;
43620;SDS011;29213;50.770;7.298;2023-05-10T08:45:54;5.63;;;2.15;;
43620;SDS011;29213;50.770;7.298;2023-05-10T08:48:22;3.42;;;2.05;;
43620;SDS011;29213;50.770;7.298;2023-05-10T08:50:49;3.78;;;2.20;;
43620;SDS011;29213;50.770;7.298;2023-05-10T08:53:18;6.30;;;2.47;;
43620;SDS011;29213;50.770;7.298;2023-05-10T08:55:44;4.28;;;2.05;;
43620;SDS011;29213;50.770;7.298;2023-05-10T08:58:11;3.50;;;1.90;;
43620;SDS011;29213;50.770;7.298;2023-05-10T09:00:36;3.47;;;1.80;;
43620;SDS011;29213;50.770;7.298;2023-05-10T09:03:03;3.78;;;1.90;;
43620;SDS011;29213;50.770;7.298;2023-05-10T09:05:29;3.42;;;1.88;;
43620;SDS011;29213;50.770;7.298;2023-05-10T09:07:55;4.20;;;2.35;;
43620;SDS011;29213;50.770;7.298;2023-05-10T09:10:21;4.22;;;2.25;;
43620;SDS011;29213;50.770;7.298;2023-05-10T09:12:48;4.82;;;2.13;;
43620;SDS011;29213;50.770;7.298;2023-05-10T09:15:17;3.40;;;1.83;;
43620;SDS011;29213;50.770;7.298;2023-05-10T09:17:44;3.13;;;1.90;;
43620;SDS011;29213;50.770;7.298;2023-05-10T09:20:11;7.25;;;2.30;;
43620;SDS011;29213;50.770;7.298;2023-05-10T09:22:36;4.00;;;2.40;;
43620;SDS011;29213;50.770;7.298;2023-05-10T09:25:03;4.57;;;2.30;;
43620;SDS011;29213;50.770;7.298;2023-05-10T09:27:31;3.80;;;2.20;;
43620;SDS011;29213;50.770;7.298;2023-05-10T09:29:57;4.03;;;2.05;;
43620;SDS011;29213;50.770;7.298;2023-05-10T09:32:36;5.20;;;2.22;;
43620;SDS011;29213;50.770;7.298;2023-05-10T09:35:13;3.70;;;2.17;;
43620;SDS011;29213;50.770;7.298;2023-05-10T09:37:40;5.25;;;2.33;;
43620;SDS011;29213;50.770;7.298;2023-05-10T09:42:41;4.35;;;2.15;;
43620;SDS011;29213;50.770;7.298;2023-05-10T09:45:07;6.28;;;2.30;;
43620;SDS011;29213;50.770;7.298;2023-05-10T09:47:34;4.57;;;2.10;;
43620;SDS011;29213;50.770;7.298;2023-05-10T09:50:01;6.75;;;2.35;;
43620;SDS011;29213;50.770;7.298;2023-05-10T09:52:29;4.85;;;1.75;;
43620;SDS011;29213;50.770;7.298;2023-05-10T09:54:56;3.63;;;1.63;;
43620;SDS011;29213;50.770;7.298;2023-05-10T09:57:22;3.25;;;1.40;;
43620;SDS011;29213;50.770;7.298;2023-05-10T09:59:48;4.93;;;1.73;;
43620;SDS011;29213;50.770;7.298;2023-05-10T10:02:15;4.03;;;1.13;;
43620;SDS011;29213;50.770;7.298;2023-05-10T10:04:40;4.00;;;1.30;;
43620;SDS011;29213;50.770;7.298;2023-05-10T10:07:07;2.85;;;1.30;;
43620;SDS011;29213;50.770;7.298;2023-05-10T10:09:33;1.98;;;1.00;;
43620;SDS011;29213;50.770;7.298;2023-05-10T10:11:59;3.10;;;1.23;;
43620;SDS011;29213;50.770;7.298;2023-05-10T10:14:28;2.03;;;1.02;;
43620;SDS011;29213;50.770;7.298;2023-05-10T10:16:54;2.63;;;1.40;;
43620;SDS011;29213;50.770;7.298;2023-05-10T10:19:21;3.00;;;1.20;;
43620;SDS011;29213;50.770;7.298;2023-05-10T10:21:47;1.92;;;1.10;;
43620;SDS011;29213;50.770;7.298;2023-05-10T10:24:15;2.70;;;1.25;;
43620;SDS011;29213;50.770;7.298;2023-05-10T10:26:41;2.65;;;1.30;;
43620;SDS011;29213;50.770;7.298;2023-05-10T10:29:24;3.50;;;1.17;;
43620;SDS011;29213;50.770;7.298;2023-05-10T10:32:08;2.00;;;1.17;;
43620;SDS011;29213;50.770;7.298;2023-05-10T10:34:44;2.55;;;1.20;;
43620;SDS011;29213;50.770;7.298;2023-05-10T10:37:09;2.60;;;1.25;;
43620;SDS011;29213;50.770;7.298;2023-05-10T10:39:35;3.42;;;2.03;;
43620;SDS011;29213;50.770;7.298;2023-05-10T10:42:01;3.75;;;1.90;;
43620;SDS011;29213;50.770;7.298;2023-05-10T10:52:22;4.53;;;2.72;;
43620;SDS011;29213;50.770;7.298;2023-05-10T11:02:54;6.85;;;4.15;;
43620;SDS011;29213;50.770;7.298;2023-05-10T11:06:10;6.28;;;4.65;;
43620;SDS011;29213;50.770;7.298;2023-05-10T11:10:36;6.63;;;4.53;;
43620;SDS011;29213;50.770;7.298;2023-05-10T11:13:03;6.90;;;4.30;;
43620;SDS011;29213;50.770;7.298;2023-05-10T11:15:36;7.00;;;4.43;;
43620;SDS011;29213;50.770;7.298;2023-05-10T11:21:18;8.95;;;5.70;;
43620;SDS011;29213;50.770;7.298;2023-05-10T11:26:11;7.18;;;5.13;;
43620;SDS011;29213;50.770;7.298;2023-05-10T11:28:47;8.55;;;4.90;;
43620;SDS011;29213;50.770;7.298;2023-05-10T11:31:14;8.30;;;5.30;;
43620;SDS011;29213;50.770;7.298;2023-05-10T11:33:45;8.27;;;5.60;;
43620;SDS011;29213;50.770;7.298;2023-05-10T11:36:12;8.18;;;6.00;;
43620;SDS011;29213;50.770;7.298;2023-05-10T11:41:52;6.32;;;4.55;;
43620;SDS011;29213;50.770;7.298;2023-05-10T11:44:20;7.18;;;5.20;;
43620;SDS011;29213;50.770;7.298;2023-05-10T11:46:46;8.80;;;6.07;;
43620;SDS011;29213;50.770;7.298;2023-05-10T11:49:11;8.00;;;5.80;;
43620;SDS011;29213;50.770;7.298;2023-05-10T11:51:38;7.85;;;5.45;;
43620;SDS011;29213;50.770;7.298;2023-05-10T11:54:08;7.22;;;4.68;;
43620;SDS011;29213;50.770;7.298;2023-05-10T11:56:34;6.78;;;4.80;;
43620;SDS011;29213;50.770;7.298;2023-05-10T11:59:01;7.03;;;4.22;;
43620;SDS011;29213;50.770;7.298;2023-05-10T12:01:27;5.80;;;4.00;;
43620;SDS011;29213;50.770;7.298;2023-05-10T12:03:54;6.15;;;3.70;;
43620;SDS011;29213;50.770;7.298;2023-05-10T12:06:26;4.68;;;3.00;;
43620;SDS011;29213;50.770;7.298;2023-05-10T12:08:54;5.70;;;2.78;;
43620;SDS011;29213;50.770;7.298;2023-05-10T12:11:19;5.10;;;2.53;;
43620;SDS011;29213;50.770;7.298;2023-05-10T12:13:46;6.03;;;2.72;;
43620;SDS011;29213;50.770;7.298;2023-05-10T12:16:16;6.47;;;3.05;;
43620;SDS011;29213;50.770;7.298;2023-05-10T12:18:43;5.03;;;2.75;;
43620;SDS011;29213;50.770;7.298;2023-05-10T12:21:10;4.90;;;3.10;;
43620;SDS011;29213;50.770;7.298;2023-05-10T12:23:37;4.63;;;2.92;;
43620;SDS011;29213;50.770;7.298;2023-05-10T12:26:03;4.78;;;2.80;;
43620;SDS011;29213;50.770;7.298;2023-05-10T12:28:30;4.90;;;3.05;;
43620;SDS011;29213;50.770;7.298;2023-05-10T12:30:57;3.80;;;2.70;;
43620;SDS011;29213;50.770;7.298;2023-05-10T12:33:22;4.68;;;2.67;;
43620;SDS011;29213;50.770;7.298;2023-05-10T12:35:52;3.45;;;2.20;;
43620;SDS011;29213;50.770;7.298;2023-05-10T12:38:24;2.90;;;1.80;;
43620;SDS011;29213;50.770;7.298;2023-05-10T12:41:07;3.50;;;2.20;;
43620;SDS011;29213;50.770;7.298;2023-05-10T12:43:35;3.63;;;2.45;;
43620;SDS011;29213;50.770;7.298;2023-05-10T12:46:05;3.97;;;2.50;;
43620;SDS011;29213;50.770;7.298;2023-05-10T12:48:32;4.70;;;2.80;;
43620;SDS011;29213;50.770;7.298;2023-05-10T12:50:59;3.97;;;2.75;;
43620;SDS011;29213;50.770;7.298;2023-05-10T12:53:25;3.88;;;2.25;;
43620;SDS011;29213;50.770;7.298;2023-05-10T12:55:51;3.83;;;2.47;;
43620;SDS011;29213;50.770;7.298;2023-05-10T12:58:16;4.35;;;2.47;;
43620;SDS011;29213;50.770;7.298;2023-05-10T13:00:42;3.90;;;2.42;;
43620;SDS011;29213;50.770;7.298;2023-05-10T13:03:08;4.75;;;2.40;;
43620;SDS011;29213;50.770;7.298;2023-05-10T13:05:35;3.22;;;2.00;;
43620;SDS011;29213;50.770;7.298;2023-05-10T13:08:00;3.50;;;1.98;;
43620;SDS011;29213;50.770;7.298;2023-05-10T13:10:26;3.97;;;2.10;;
43620;SDS011;29213;50.770;7.298;2023-05-10T13:12:51;3.22;;;1.85;;
43620;SDS011;29213;50.770;7.298;2023-05-10T13:15:17;2.78;;;1.60;;
43620;SDS011;29213;50.770;7.298;2023-05-10T13:17:42;3.30;;;1.60;;
43620;SDS011;29213;50.770;7.298;2023-05-10T13:20:11;3.00;;;1.70;;
43620;SDS011;29213;50.770;7.298;2023-05-10T13:22:36;3.92;;;1.55;;
43620;SDS011;29213;50.770;7.298;2023-05-10T13:25:02;2.75;;;1.58;;
43620;SDS011;29213;50.770;7.298;2023-05-10T13:27:27;3.33;;;2.00;;
43620;SDS011;29213;50.770;7.298;2023-05-10T13:29:53;2.97;;;1.58;;
43620;SDS011;29213;50.770;7.298;2023-05-10T13:32:18;3.30;;;1.70;;
43620;SDS011;29213;50.770;7.298;2023-05-10T13:34:44;3.47;;;1.85;;
43620;SDS011;29213;50.770;7.298;2023-05-10T13:37:10;3.95;;;1.67;;
43620;SDS011;29213;50.770;7.298;2023-05-10T13:39:35;3.75;;;2.20;;
43620;SDS011;29213;50.770;7.298;2023-05-10T13:42:02;4.05;;;2.00;;
43620;SDS011;29213;50.770;7.298;2023-05-10T13:44:28;2.97;;;1.80;;
43620;SDS011;29213;50.770;7.298;2023-05-10T13:46:53;4.32;;;2.00;;
43620;SDS011;29213;50.770;7.298;2023-05-10T13:49:19;3.67;;;1.80;;
43620;SDS011;29213;50.770;7.298;2023-05-10T13:51:45;3.42;;;1.90;;
43620;SDS011;29213;50.770;7.298;2023-05-10T13:54:10;2.75;;;1.50;;
43620;SDS011;29213;50.770;7.298;2023-05-10T13:56:36;3.20;;;1.38;;
43620;SDS011;29213;50.770;7.298;2023-05-10T13:59:01;1.90;;;1.00;;
43620;SDS011;29213;50.770;7.298;2023-05-10T14:01:27;2.67;;;0.98;;
43620;SDS011;29213;50.770;7.298;2023-05-10T14:03:52;2.40;;;1.30;;
43620;SDS011;29213;50.770;7.298;2023-05-10T14:06:17;2.85;;;1.10;;
43620;SDS011;29213;50.770;7.298;2023-05-10T14:08:43;2.10;;;1.05;;
43620;SDS011;29213;50.770;7.298;2023-05-10T14:11:08;1.70;;;0.90;;
43620;SDS011;29213;50.770;7.298;2023-05-10T14:13:34;2.17;;;1.08;;
43620;SDS011;29213;50.770;7.298;2023-05-10T14:16:00;2.35;;;1.02;;
43620;SDS011;29213;50.770;7.298;2023-05-10T14:18:26;2.85;;;1.23;;
43620;SDS011;29213;50.770;7.298;2023-05-10T14:20:52;2.78;;;1.10;;
43620;SDS011;29213;50.770;7.298;2023-05-10T14:23:17;1.95;;;1.13;;
43620;SDS011;29213;50.770;7.298;2023-05-10T14:25:45;1.83;;;0.90;;
43620;SDS011;29213;50.770;7.298;2023-05-10T14:28:10;2.08;;;1.20;;
43620;SDS011;29213;50.770;7.298;2023-05-10T14:30:37;2.17;;;1.13;;
43620;SDS011;29213;50.770;7.298;2023-05-10T14:33:02;2.72;;;1.00;;
43620;SDS011;29213;50.770;7.298;2023-05-10T14:35:28;3.00;;;1.40;;
43620;SDS011;29213;50.770;7.298;2023-05-10T14:37:56;2.72;;;1.30;;
43620;SDS011;29213;50.770;7.298;2023-05-10T14:40:21;2.50;;;1.30;;
43620;SDS011;29213;50.770;7.298;2023-05-10T14:42:48;2.90;;;1.20;;
43620;SDS011;29213;50.770;7.298;2023-05-10T14:45:13;2.35;;;1.23;;
43620;SDS011;29213;50.770;7.298;2023-05-10T14:47:39;2.28;;;1.23;;
43620;SDS011;29213;50.770;7.298;2023-05-10T14:50:04;2.55;;;1.40;;
43620;SDS011;29213;50.770;7.298;2023-05-10T14:52:30;2.42;;;1.40;;
43620;SDS011;29213;50.770;7.298;2023-05-10T14:54:56;3.03;;;1.42;;
43620;SDS011;29213;50.770;7.298;2023-05-10T14:57:22;4.05;;;1.40;;
43620;SDS011;29213;50.770;7.298;2023-05-10T14:59:47;3.40;;;1.40;;
43620;SDS011;29213;50.770;7.298;2023-05-10T15:02:13;3.50;;;1.38;;
43620;SDS011;29213;50.770;7.298;2023-05-10T15:04:38;3.83;;;1.52;;
43620;SDS011;29213;50.770;7.298;2023-05-10T15:07:04;3.65;;;1.30;;
43620;SDS011;29213;50.770;7.298;2023-05-10T15:47:12;2.20;;;1.10;;
43620;SDS011;29213;50.770;7.298;2023-05-10T16:11:54;2.00;;;0.90;;
43620;SDS011;29213;50.770;7.298;2023-05-10T16:24:52;4.28;;;1.15;;
43620;SDS011;29213;50.770;7.298;2023-05-10T16:27:18;2.75;;;1.13;;
43620;SDS011;29213;50.770;7.298;2023-05-10T16:29:44;3.22;;;1.10;;
43620;SDS011;29213;50.770;7.298;2023-05-10T16:32:10;3.72;;;0.90;;
43620;SDS011;29213;50.770;7.298;2023-05-10T16:34:36;2.03;;;0.80;;
43620;SDS011;29213;50.770;7.298;2023-05-10T16:37:01;2.05;;;0.80;;
43620;SDS011;29213;50.770;7.298;2023-05-10T16:39:26;1.60;;;0.80;;
43620;SDS011;29213;50.770;7.298;2023-05-10T16:41:52;1.52;;;0.70;;
43620;SDS011;29213;50.770;7.298;2023-05-10T16:44:17;1.83;;;0.77;;
43620;SDS011;29213;50.770;7.298;2023-05-10T16:46:43;2.30;;;0.80;;